Terminal Aerodrome Forecast
Issued by NWS Jackson, KY

Home | Current Version | Previous Version | Text Only | Print | Product List | Glossary On
Versions: 1 2 3 4 5 6 7 8 9 10 11 12 13 14 15 16 17 18 19 20 21 22 23 24
000
FTUS43 KJKL 031721
TAFLOZ
TAF
KLOZ 031721Z 0318/0418 07003KT P6SM OVC026
     FM040500 00000KT P6SM SCT025 OVC070
     FM040900 VRB03KT P6SM VCSH OVC030
     FM041300 VRB03KT P6SM VCSH BKN010 OVC025=

USA.gov is the U.S. government's official web portal to all federal, state and local government web resources and services.